Time;durP1;ratioP1;P1;durP2;ratioP2;P2;SDS_P1;SDS_P2;PMS_P1;PMS_P2;Temp;Humidity;BMP_temperature;BMP_pressure;BME280_temperature;BME280_humidity;BME280_pressure;Samples;Min_cycle;Max_cycle;Signal;HPM_P1;HPM_P2
2022/02/06 09:35:56;;;;;;;3.10;0.60;;;;;;;5.32;94.37;98472.50;5124324;27;41442;-82
2022/02/06 09:38:27;;;;;;;3.63;0.70;;;;;;;5.59;91.53;98451.09;5132200;27;41919;-82
2022/02/06 09:40:55;;;;;;;1.37;0.60;;;;;;;5.61;88.15;98410.69;5115539;27;42082;-84
2022/02/06 09:43:23;;;;;;;2.43;2.03;;;;;;;6.27;87.55;98468.72;5132250;27;40652;-85
2022/02/06 09:45:50;;;;;;;1.00;0.70;;;;;;;6.33;85.58;98434.19;5115579;27;40171;-82
2022/02/06 09:48:18;;;;;;;3.20;1.00;;;;;;;6.37;84.23;98432.25;5131971;27;41782;-82
2022/02/06 09:50:47;;;;;;;1.07;0.80;;;;;;;6.54;83.92;98455.06;5132391;27;44353;-84
2022/02/06 09:53:14;;;;;;;1.43;0.67;;;;;;;6.62;83.53;98448.47;5131875;27;41410;-82
2022/02/06 09:55:45;;;;;;;3.10;0.80;;;;;;;6.66;83.18;98417.59;5116003;27;38849;-83
2022/02/06 09:58:28;;;;;;;2.97;0.80;;;;;;;6.77;82.84;98431.84;5099624;27;41992;-83
2022/02/06 10:00:56;;;;;;;1.73;0.77;;;;;;;6.83;82.07;98435.94;5123344;27;41690;-83
2022/02/06 10:03:25;;;;;;;1.10;0.90;;;;;;;6.74;82.37;98403.06;5114363;27;42570;-82
2022/02/06 10:05:54;;;;;;;1.43;0.60;;;;;;;6.74;81.58;98397.81;5132257;27;39086;-84
2022/02/06 10:08:31;;;;;;;1.03;0.80;;;;;;;6.79;81.99;98416.84;5159512;27;41785;-82
2022/02/06 10:11:04;;;;;;;1.17;0.93;;;;;;;6.75;81.75;98391.63;5166658;27;43092;-81
2022/02/06 10:13:34;;;;;;;1.87;0.63;;;;;;;6.76;81.02;98385.41;5148505;27;43444;-82
2022/02/06 10:16:02;;;;;;;1.23;0.60;;;;;;;6.84;81.08;98391.09;5150293;27;40266;-83
2022/02/06 10:18:32;;;;;;;0.80;0.60;;;;;;;6.78;81.16;98383.56;5141169;27;40544;-84
2022/02/06 10:21:00;;;;;;;0.70;0.70;;;;;;;6.76;81.05;98367.00;5160477;27;43051;-84
2022/02/06 10:23:35;;;;;;;1.40;0.80;;;;;;;6.88;80.50;98383.91;5131112;27;40989;-85
2022/02/06 10:26:10;;;;;;;2.33;0.60;;;;;;;6.88;80.29;98370.75;5131486;27;39803;-85
2022/02/06 10:28:42;;;;;;;2.00;1.70;;;;;;;7.01;80.20;98366.50;5097829;27;40476;-81
2022/02/06 10:31:10;;;;;;;0.40;0.40;;;;;;;7.05;79.29;98353.97;5097352;27;44596;-84
2022/02/06 10:33:46;;;;;;;3.33;0.70;;;;;;;7.14;78.84;98372.78;5132470;27;41249;-82
2022/02/06 10:36:17;;;;;;;4.17;0.57;;;;;;;7.10;78.49;98333.53;5131164;27;39933;-82
2022/02/06 10:38:47;;;;;;;0.80;0.60;;;;;;;7.34;77.99;98353.19;5113881;27;40786;-83
2022/02/06 10:41:17;;;;;;;1.63;0.67;;;;;;;7.25;77.17;98332.66;5112967;27;41817;-81
2022/02/06 10:43:56;;;;;;;0.70;0.70;;;;;;;7.26;77.78;98329.09;5122391;27;40927;-85
2022/02/06 10:46:26;;;;;;;3.63;0.83;;;;;;;6.91;77.53;98275.81;5117297;27;40583;-85
2022/02/06 10:48:55;;;;;;;0.83;0.60;;;;;;;7.18;77.88;98295.28;5100114;27;40458;-84
2022/02/06 10:51:42;;;;;;;1.43;0.80;;;;;;;7.21;77.22;98308.28;5115930;27;42729;-83
2022/02/06 10:54:12;;;;;;;0.53;0.53;;;;;;;7.15;77.06;98315.69;5100165;27;41156;-83
2022/02/06 10:57:02;;;;;;;2.13;0.70;;;;;;;7.22;77.21;98311.75;5117245;27;40139;-84
2022/02/06 10:59:38;;;;;;;0.70;0.70;;;;;;;7.19;77.69;98306.66;5112121;28;41905;-85
2022/02/06 11:02:17;;;;;;;3.30;0.67;;;;;;;7.23;78.35;98281.84;5090913;27;43764;-82
2022/02/06 11:04:56;;;;;;;0.90;0.57;;;;;;;7.30;78.07;98274.44;5098254;27;41154;-82
2022/02/06 11:07:25;;;;;;;0.77;0.70;;;;;;;7.25;78.04;98263.34;5110683;27;39658;-82
2022/02/06 11:10:05;;;;;;;1.83;1.10;;;;;;;7.15;78.51;98242.81;5114613;28;41527;-83
2022/02/06 11:12:33;;;;;;;1.73;0.67;;;;;;;7.25;78.54;98242.25;5111204;27;42793;-82
2022/02/06 11:15:03;;;;;;;0.50;0.50;;;;;;;7.01;79.01;98202.44;5100121;27;41233;-84
2022/02/06 11:17:35;;;;;;;0.50;0.50;;;;;;;7.16;79.06;98236.63;5099497;27;39854;-83
2022/02/06 11:20:06;;;;;;;1.83;0.80;;;;;;;7.18;79.71;98210.16;5100403;27;42709;-85
2022/02/06 11:22:35;;;;;;;0.47;0.47;;;;;;;7.04;79.99;98208.38;5115869;27;41797;-81
2022/02/06 11:25:05;;;;;;;1.53;0.80;;;;;;;7.15;79.73;98194.56;5100151;27;42869;-83
2022/02/06 11:27:33;;;;;;;0.97;0.60;;;;;;;7.26;80.04;98217.63;5140403;27;40615;-82
2022/02/06 11:30:01;;;;;;;1.60;0.60;;;;;;;7.23;79.76;98194.94;5109395;27;40996;-82
2022/02/06 11:32:29;;;;;;;1.13;0.57;;;;;;;7.29;79.60;98185.84;5097480;27;41830;-84
2022/02/06 11:34:58;;;;;;;1.93;0.90;;;;;;;7.23;79.83;98187.06;5101170;28;42483;-83
2022/02/06 11:43:51;;;;;;;0.73;0.50;;;;;;;7.35;79.38;98175.78;5100502;27;44345;-82
2022/02/06 11:46:24;;;;;;;3.40;0.70;;;;;;;7.31;79.79;98137.38;5078721;28;42410;-83
2022/02/06 11:48:58;;;;;;;0.50;0.47;;;;;;;7.21;79.19;98141.53;5096071;28;39955;-82
2022/02/06 11:51:26;;;;;;;0.70;0.50;;;;;;;7.32;79.58;98128.56;5101913;27;40855;-83
2022/02/06 11:53:53;;;;;;;1.33;0.50;;;;;;;7.31;79.33;98116.31;5098243;27;42942;-82
2022/02/06 11:56:24;;;;;;;0.50;0.50;;;;;;;7.34;78.86;98105.59;5097748;27;42426;-83
2022/02/06 11:58:52;;;;;;;0.57;0.50;;;;;;;7.50;78.17;98110.78;5116734;27;38826;-84
2022/02/06 12:01:22;;;;;;;0.53;0.50;;;;;;;7.43;78.69;98088.38;5115519;27;40941;-82
2022/02/06 12:03:54;;;;;;;0.60;0.60;;;;;;;7.45;78.11;98086.50;5115403;27;43023;-82
2022/02/06 12:06:24;;;;;;;0.40;0.33;;;;;;;7.52;78.62;98062.34;5131191;27;42861;-82
2022/02/06 12:09:12;;;;;;;0.50;0.50;;;;;;;7.46;78.32;98078.50;5133401;27;39822;-83
2022/02/06 12:11:41;;;;;;;0.70;0.70;;;;;;;7.26;78.23;98043.81;5114722;27;40318;-84
2022/02/06 12:14:10;;;;;;;0.57;0.57;;;;;;;7.32;78.61;98070.63;5097902;27;42058;-83
2022/02/06 12:16:43;;;;;;;0.43;0.43;;;;;;;7.33;78.19;98051.25;5099039;27;41015;-84
2022/02/06 12:19:25;;;;;;;1.47;0.60;;;;;;;7.27;78.71;98035.84;5115708;27;40174;-85
2022/02/06 12:21:53;;;;;;;0.40;0.40;;;;;;;7.28;78.50;98019.09;5098319;27;41320;-85
2022/02/06 12:24:36;;;;;;;0.60;0.60;;;;;;;7.27;78.99;98041.09;5099442;27;42069;-85
2022/02/06 12:27:26;;;;;;;0.40;0.40;;;;;;;7.20;78.65;98030.09;5097823;27;43786;-83
2022/02/06 12:29:58;;;;;;;0.60;0.60;;;;;;;7.12;79.66;98010.44;5097482;27;38881;-82
2022/02/06 12:32:31;;;;;;;0.60;0.50;;;;;;;7.18;79.97;98010.06;5096845;27;40447;-84
2022/02/06 12:37:46;;;;;;;2.57;0.40;;;;;;;7.04;80.08;97999.56;5104391;27;43029;-81
2022/02/06 12:40:16;;;;;;;0.40;0.40;;;;;;;7.05;80.23;97988.06;5082229;27;39103;-84
2022/02/06 12:42:47;;;;;;;0.80;0.63;;;;;;;7.07;81.13;97996.72;5115834;27;41887;-82
2022/02/06 12:45:16;;;;;;;0.63;0.63;;;;;;;7.08;81.09;97978.19;5099708;27;42671;-84
2022/02/06 12:47:46;;;;;;;0.40;0.40;;;;;;;6.96;81.50;97960.53;5131223;27;42869;-85
2022/02/06 12:50:15;;;;;;;0.43;0.40;;;;;;;7.00;81.55;97979.63;5115965;27;39958;-85
2022/02/06 12:52:44;;;;;;;0.40;0.40;;;;;;;7.03;81.40;97961.00;5114907;27;41817;-84
2022/02/06 12:55:13;;;;;;;0.73;0.40;;;;;;;7.00;81.72;97948.88;5098537;27;41750;-85
2022/02/06 12:57:56;;;;;;;0.40;0.33;;;;;;;6.87;82.33;97950.59;5090316;27;42022;-83
2022/02/06 13:00:26;;;;;;;0.40;0.40;;;;;;;6.84;82.98;97946.34;5096439;27;39019;-84
2022/02/06 13:02:55;;;;;;;0.50;0.50;;;;;;;6.83;82.66;97947.28;5096614;27;42311;-83
2022/02/06 13:05:23;;;;;;;1.80;0.60;;;;;;;6.73;82.61;97925.13;5115676;27;44264;-84
2022/02/06 13:07:50;;;;;;;2.33;0.77;;;;;;;6.66;83.13;97886.16;5113478;27;42473;-85
2022/02/06 13:10:20;;;;;;;0.50;0.50;;;;;;;6.65;83.20;97911.59;5098662;27;40469;-82
2022/02/06 13:12:53;;;;;;;0.60;0.60;;;;;;;6.59;83.54;97908.50;5115257;27;43112;-83
2022/02/06 13:15:58;;;;;;;0.83;0.60;;;;;;;6.69;83.90;97907.81;5114986;27;42160;-83
2022/02/06 13:18:49;;;;;;;0.40;0.40;;;;;;;6.56;84.09;97891.09;5099972;27;41025;-84
2022/02/06 13:21:38;;;;;;;0.40;0.40;;;;;;;6.48;84.23;97861.81;5097815;27;40170;-86
2022/02/06 13:24:22;;;;;;;0.47;0.47;;;;;;;6.55;84.74;97893.84;5095950;27;40869;-83
2022/02/06 13:27:04;;;;;;;0.70;0.50;;;;;;;6.57;85.09;97900.69;5088382;28;41836;-84
2022/02/06 13:29:42;;;;;;;0.43;0.43;;;;;;;6.43;85.16;97854.19;5098112;27;41315;-84
2022/02/06 13:32:25;;;;;;;0.60;0.60;;;;;;;6.49;85.13;97863.50;5112948;27;40209;-86
2022/02/06 13:35:09;;;;;;;0.40;0.40;;;;;;;6.61;85.10;97857.47;5097321;27;40927;-85
2022/02/06 13:37:46;;;;;;;0.40;0.33;;;;;;;6.36;84.98;97831.84;5113356;27;42325;-85
2022/02/06 13:40:18;;;;;;;0.83;0.40;;;;;;;6.50;85.28;97838.91;5097270;27;40970;-86
2022/02/06 13:42:58;;;;;;;0.50;0.40;;;;;;;6.45;85.98;97826.03;5114712;27;40094;-85
2022/02/06 13:45:28;;;;;;;0.83;0.40;;;;;;;6.26;86.17;97812.34;5094782;27;41911;-84
2022/02/06 13:47:57;;;;;;;0.40;0.40;;;;;;;6.30;86.24;97815.63;5114738;27;44387;-83
2022/02/06 13:50:25;;;;;;;0.40;0.40;;;;;;;6.32;86.77;97805.84;5113441;27;42629;-85
2022/02/06 13:53:14;;;;;;;0.40;0.40;;;;;;;6.22;86.45;97783.69;5114595;27;39035;-84
2022/02/06 13:55:47;;;;;;;0.30;0.30;;;;;;;6.28;87.13;97783.34;5097544;27;40889;-87
2022/02/06 13:58:16;;;;;;;0.40;0.40;;;;;;;6.18;87.03;97764.66;5097699;27;43723;-85
2022/02/06 14:00:56;;;;;;;0.30;0.30;;;;;;;6.32;86.64;97785.66;5115510;27;43205;-84
2022/02/06 14:03:40;;;;;;;0.50;0.50;;;;;;;6.29;86.64;97762.22;5115167;27;38879;-85
2022/02/06 14:06:07;;;;;;;0.40;0.40;;;;;;;6.40;86.57;97758.91;5097880;27;41793;-89
2022/02/06 14:08:37;;;;;;;0.50;0.40;;;;;;;6.15;87.09;97722.78;5097568;27;42553;-84
2022/02/06 14:11:10;;;;;;;0.40;0.40;;;;;;;6.27;86.38;97724.66;5107771;27;41383;-84
